Wilson Lisbon — 5BNU3 — position and weather

sailwx.info

Track history (hours):
 
Tides and Currents Weather Stations Pressure Air Temp Water Temp Dewpoint Dewpoint Depression Visibility Wind Speed Wind Dir Waves Ship Positions

Wilson Lisbon

Last reported at 2014-Oct-25 00:33 UTC. Time now 2014-Oct-25 00:46 UTC.
Position N 58°54' E 005°16'.

Length 90 m; draft 5.6 m.

Type: Ship. MMSI: 212376000.

Date/timePositionNaut miles runAvg speedWind from/ knotsBaromVisibWave heightAir tempDewpointWater temp
2014-Oct-25 00:33N 58°54' E 005°16'8 7.5
2014-Oct-24 23:33N 59°02' E 005°19'8 7.6
2014-Oct-24 22:33N 59°09' E 005°20'9 8.6
2014-Oct-24 21:33N 59°18' E 005°20'10 9.7
2014-Oct-24 20:34N 59°27' E 005°13'  
2014-Oct-18 11:08N 59°30' E 005°13'610.4
2014-Oct-18 10:33N 59°24' E 005°16'1110.5
2014-Oct-18 09:33N 59°14' E 005°21'9 8.6
2014-Oct-18 08:33N 59°05' E 005°21'10 9.5
2014-Oct-18 07:33N 58°56' E 005°18'9 9.4
2014-Oct-18 06:33N 58°47' E 005°13'28 9.1
2014-Oct-18 03:28N 58°19' E 005°10'8 8.4
2014-Oct-18 02:34N 58°11' E 005°09'8 8.4
2014-Oct-18 01:33N 58°03' E 005°09'239 8.0
2014-Oct-16 19:33N 54°04' E 004°56'8 7.5
2014-Oct-16 18:31N 53°56' E 004°55'7 7.4
2014-Oct-16 17:33N 53°49' E 004°53'16 7.4
2014-Oct-16 15:24N 53°33' E 004°47'34 8.3
2014-Oct-16 11:19N 53°02' E 004°24'7 9.2
2014-Oct-16 10:33N 52°56' E 004°19'9 9.2
2014-Oct-16 09:33N 52°48' E 004°12'9 9.2
2014-Oct-16 08:33N 52°39' E 004°07'8 8.3
2014-Oct-16 07:33N 52°32' E 004°12'10 9.7
2014-Oct-16 06:33N 52°29' E 004°27'6 5.6
2014-Oct-16 05:33N 52°28' E 004°36'7 7.2
2014-Oct-16 04:33N 52°24' E 004°47'0 0.2
2014-Oct-16 03:32N 52°24' E 004°47'0 0.0
2014-Oct-16 02:32N 52°24' E 004°47'0 0.0
2014-Oct-16 01:32N 52°24' E 004°47'0 0.0
2014-Oct-16 00:32N 52°24' E 004°47'0 0.0
2014-Oct-15 23:32N 52°24' E 004°47'0 0.0
2014-Oct-15 22:32N 52°24' E 004°47'0 0.0
2014-Oct-15 21:32N 52°24' E 004°47'0 0.0
2014-Oct-15 20:32N 52°24' E 004°47'0 0.0
2014-Oct-15 19:32N 52°24' E 004°47'0 0.0
2014-Oct-15 18:32N 52°24' E 004°47'0 0.0
2014-Oct-15 17:32N 52°24' E 004°47'0 0.0
2014-Oct-15 16:32N 52°24' E 004°47'0 0.0
2014-Oct-15 15:29N 52°24' E 004°47'0 0.0
2014-Oct-15 14:32N 52°24' E 004°47'0 0.0
2014-Oct-15 13:32N 52°24' E 004°47'0 0.0
2014-Oct-15 12:32N 52°24' E 004°47'0 0.0
2014-Oct-15 11:32N 52°24' E 004°47'0 0.0
2014-Oct-15 10:32N 52°24' E 004°47'0 0.0
2014-Oct-15 09:32N 52°24' E 004°47'0 0.0
2014-Oct-15 08:31N 52°24' E 004°47'0 0.0
2014-Oct-15 07:31N 52°24' E 004°47'0 0.0
2014-Oct-15 06:28N 52°24' E 004°47'0 0.0
2014-Oct-15 05:28N 52°24' E 004°47'0 0.0
2014-Oct-15 04:31N 52°24' E 004°47'0 0.0
2014-Oct-15 03:31N 52°24' E 004°47'0 0.0
2014-Oct-15 02:31N 52°24' E 004°47'0 0.0
2014-Oct-15 01:31N 52°24' E 004°47'  
Track history (hours):
 
Tides and Currents Weather Stations Pressure Air Temp Water Temp Dewpoint Dewpoint Depression Visibility Wind Speed Wind Dir Waves Ship Positions

Wilson Lisbon

Last reported at 2014-Oct-25 00:33 UTC. Time now 2014-Oct-25 00:46 UTC.
Position N 58°54' E 005°16'.

Length 90 m; draft 5.6 m.

Type: Ship. MMSI: 212376000.

Date/timePositionNaut miles runAvg speedWind from/ knotsBaromVisibWave heightAir tempDewpointWater temp
2014-Oct-25 00:33N 58°54' E 005°16'8 7.5
2014-Oct-24 23:33N 59°02' E 005°19'8 7.6
2014-Oct-24 22:33N 59°09' E 005°20'9 8.6
2014-Oct-24 21:33N 59°18' E 005°20'10 9.7
2014-Oct-24 20:34N 59°27' E 005°13'  
2014-Oct-18 11:08N 59°30' E 005°13'610.4
2014-Oct-18 10:33N 59°24' E 005°16'1110.5
2014-Oct-18 09:33N 59°14' E 005°21'9 8.6
2014-Oct-18 08:33N 59°05' E 005°21'10 9.5
2014-Oct-18 07:33N 58°56' E 005°18'9 9.4
2014-Oct-18 06:33N 58°47' E 005°13'28 9.1
2014-Oct-18 03:28N 58°19' E 005°10'8 8.4
2014-Oct-18 02:34N 58°11' E 005°09'8 8.4
2014-Oct-18 01:33N 58°03' E 005°09'239 8.0
2014-Oct-16 19:33N 54°04' E 004°56'8 7.5
2014-Oct-16 18:31N 53°56' E 004°55'7 7.4
2014-Oct-16 17:33N 53°49' E 004°53'16 7.4
2014-Oct-16 15:24N 53°33' E 004°47'34 8.3
2014-Oct-16 11:19N 53°02' E 004°24'7 9.2
2014-Oct-16 10:33N 52°56' E 004°19'9 9.2
2014-Oct-16 09:33N 52°48' E 004°12'9 9.2
2014-Oct-16 08:33N 52°39' E 004°07'8 8.3
2014-Oct-16 07:33N 52°32' E 004°12'10 9.7
2014-Oct-16 06:33N 52°29' E 004°27'6 5.6
2014-Oct-16 05:33N 52°28' E 004°36'7 7.2
2014-Oct-16 04:33N 52°24' E 004°47'0 0.2
2014-Oct-16 03:32N 52°24' E 004°47'0 0.0
2014-Oct-16 02:32N 52°24' E 004°47'0 0.0
2014-Oct-16 01:32N 52°24' E 004°47'0 0.0
2014-Oct-16 00:32N 52°24' E 004°47'0 0.0
2014-Oct-15 23:32N 52°24' E 004°47'0 0.0
2014-Oct-15 22:32N 52°24' E 004°47'0 0.0
2014-Oct-15 21:32N 52°24' E 004°47'0 0.0
2014-Oct-15 20:32N 52°24' E 004°47'0 0.0
2014-Oct-15 19:32N 52°24' E 004°47'0 0.0
2014-Oct-15 18:32N 52°24' E 004°47'0 0.0
2014-Oct-15 17:32N 52°24' E 004°47'0 0.0
2014-Oct-15 16:32N 52°24' E 004°47'0 0.0
2014-Oct-15 15:29N 52°24' E 004°47'0 0.0
2014-Oct-15 14:32N 52°24' E 004°47'0 0.0
2014-Oct-15 13:32N 52°24' E 004°47'0 0.0
2014-Oct-15 12:32N 52°24' E 004°47'0 0.0
2014-Oct-15 11:32N 52°24' E 004°47'0 0.0
2014-Oct-15 10:32N 52°24' E 004°47'0 0.0
2014-Oct-15 09:32N 52°24' E 004°47'0 0.0
2014-Oct-15 08:31N 52°24' E 004°47'0 0.0
2014-Oct-15 07:31N 52°24' E 004°47'0 0.0
2014-Oct-15 06:28N 52°24' E 004°47'0 0.0
2014-Oct-15 05:28N 52°24' E 004°47'0 0.0
2014-Oct-15 04:31N 52°24' E 004°47'0 0.0
2014-Oct-15 03:31N 52°24' E 004°47'0 0.0
2014-Oct-15 02:31N 52°24' E 004°47'0 0.0
2014-Oct-15 01:31N 52°24' E 004°47'  

Dump ship's entire track history